Time;durP1;ratioP1;P1;durP2;ratioP2;P2;SDS_P1;SDS_P2;PMS_P1;PMS_P2;Temp;Humidity;BMP_temperature;BMP_pressure;BME280_temperature;BME280_humidity;BME280_pressure;Samples;Min_cycle;Max_cycle;Signal;HPM_P1;HPM_P2
2022/05/16 00:01:26;;;;;;;17.30;5.30;;;;;;;;;;5045678;28;20060;-66
2022/05/16 00:03:53;;;;;;;11.80;4.82;;;;;;;;;;5052171;28;20025;-66
2022/05/16 00:06:19;;;;;;;17.67;4.68;;;;;;;;;;5036260;28;20048;-66
2022/05/16 00:08:45;;;;;;;13.70;4.50;;;;;;;;;;5034291;28;20038;-66
2022/05/16 00:11:11;;;;;;;14.57;5.68;;;;;;;;;;5052232;28;20037;-66
2022/05/16 00:13:37;;;;;;;12.50;4.63;;;;;;;;;;5052331;28;20033;-66
2022/05/16 00:16:03;;;;;;;15.32;4.78;;;;;;;;;;5052010;28;20025;-66
2022/05/16 00:18:30;;;;;;;13.95;4.75;;;;;;;;;;5048891;28;20053;-66
2022/05/16 00:20:56;;;;;;;14.38;4.47;;;;;;;;;;5042287;28;20037;-66
2022/05/16 00:23:22;;;;;;;24.10;4.85;;;;;;;;;;5051935;28;20108;-66
2022/05/16 00:25:48;;;;;;;20.13;5.22;;;;;;;;;;5051667;28;20112;-66
2022/05/16 00:28:14;;;;;;;15.38;4.63;;;;;;;;;;5052260;28;20017;-66
2022/05/16 00:30:41;;;;;;;13.70;4.35;;;;;;;;;;5034188;28;20091;-66
2022/05/16 00:33:07;;;;;;;10.90;4.75;;;;;;;;;;5044458;28;20428;-66
2022/05/16 00:35:33;;;;;;;17.48;5.38;;;;;;;;;;5056042;28;20025;-66
2022/05/16 00:37:59;;;;;;;19.65;4.70;;;;;;;;;;5072903;28;20040;-66
2022/05/16 00:40:25;;;;;;;15.68;4.57;;;;;;;;;;5075999;28;20033;-66
2022/05/16 00:42:58;;;;;;;13.95;4.32;;;;;;;;;;5055844;28;20054;-66
2022/05/16 00:45:24;;;;;;;16.23;5.43;;;;;;;;;;5055619;28;20607;-66
2022/05/16 00:47:50;;;;;;;19.23;5.65;;;;;;;;;;5054694;28;20067;-66
2022/05/16 00:50:17;;;;;;;10.85;4.20;;;;;;;;;;5055488;28;20112;-66
2022/05/16 00:52:45;;;;;;;18.08;4.70;;;;;;;;;;5053728;28;20512;-66
2022/05/16 00:55:20;;;;;;;13.60;4.22;;;;;;;;;;5055285;28;20040;-66
2022/05/16 00:57:48;;;;;;;16.50;4.78;;;;;;;;;;5054772;28;20079;-66
2022/05/16 01:00:19;;;;;;;22.27;5.60;;;;;;;;;;5054879;28;20080;-66
2022/05/16 01:05:33;;;;;;;22.15;5.45;;;;;;;;;;5055284;28;20048;-66
2022/05/16 01:08:01;;;;;;;11.18;4.78;;;;;;;;;;5054641;28;20029;-66
2022/05/16 01:10:28;;;;;;;19.92;5.35;;;;;;;;;;5055390;28;20039;-66
2022/05/16 01:12:55;;;;;;;14.82;5.10;;;;;;;;;;5035928;28;20033;-66
2022/05/16 01:15:26;;;;;;;22.67;5.15;;;;;;;;;;5038580;28;20030;-66
2022/05/16 01:17:52;;;;;;;14.30;4.18;;;;;;;;;;5035366;28;20037;-66
2022/05/16 01:20:18;;;;;;;12.05;4.40;;;;;;;;;;5067075;28;20029;-66
2022/05/16 01:22:50;;;;;;;19.40;4.43;;;;;;;;;;5047385;28;20029;-66
2022/05/16 01:25:22;;;;;;;19.08;4.68;;;;;;;;;;5075230;28;20094;-66
2022/05/16 01:27:51;;;;;;;16.35;4.47;;;;;;;;;;5069331;28;20029;-66
2022/05/16 01:30:19;;;;;;;17.75;4.50;;;;;;;;;;5054527;28;20025;-66
2022/05/16 01:32:46;;;;;;;18.05;5.10;;;;;;;;;;5037888;28;20033;-66
2022/05/16 01:35:12;;;;;;;16.85;4.80;;;;;;;;;;5034789;28;20029;-66
2022/05/16 01:40:24;;;;;;;21.80;5.57;;;;;;;;;;5052445;28;20036;-66
2022/05/16 01:42:50;;;;;;;24.10;5.53;;;;;;;;;;5058006;28;20039;-66
2022/05/16 01:45:16;;;;;;;18.00;4.95;;;;;;;;;;5074365;28;20024;-66
2022/05/16 01:47:42;;;;;;;20.48;5.10;;;;;;;;;;5074602;28;20028;-66
2022/05/16 01:50:08;;;;;;;15.10;4.63;;;;;;;;;;5074418;28;20032;-66
2022/05/16 01:52:34;;;;;;;21.00;4.72;;;;;;;;;;5073778;28;20480;-66
2022/05/16 01:55:00;;;;;;;20.77;4.78;;;;;;;;;;5074211;28;20036;-66
2022/05/16 01:57:26;;;;;;;21.75;6.15;;;;;;;;;;5074112;28;20037;-66
2022/05/16 01:59:53;;;;;;;18.17;4.40;;;;;;;;;;5034813;28;20057;-66
2022/05/16 02:02:19;;;;;;;25.77;5.05;;;;;;;;;;5034259;28;20083;-66
2022/05/16 02:04:45;;;;;;;18.35;4.47;;;;;;;;;;5034376;28;20029;-66
2022/05/16 02:07:11;;;;;;;21.85;5.15;;;;;;;;;;5034062;28;20057;-66
2022/05/16 02:09:37;;;;;;;22.17;5.15;;;;;;;;;;5034280;28;20040;-66
2022/05/16 02:12:03;;;;;;;23.63;4.72;;;;;;;;;;5041338;28;20469;-66
2022/05/16 02:14:29;;;;;;;22.80;6.00;;;;;;;;;;5054385;28;20116;-66
2022/05/16 02:16:55;;;;;;;23.98;4.80;;;;;;;;;;5053951;28;20040;-66
2022/05/16 02:19:21;;;;;;;19.25;5.28;;;;;;;;;;5054056;28;20035;-66
2022/05/16 02:24:39;;;;;;;24.20;5.25;;;;;;;;;;5034042;28;20037;-66
2022/05/16 02:27:09;;;;;;;22.98;4.75;;;;;;;;;;5033661;28;20029;-66
2022/05/16 02:29:35;;;;;;;21.73;5.03;;;;;;;;;;5034030;28;20053;-66
2022/05/16 02:32:05;;;;;;;24.48;5.93;;;;;;;;;;5033869;28;20450;-66
2022/05/16 02:34:31;;;;;;;21.55;4.57;;;;;;;;;;5033962;28;20030;-66
2022/05/16 02:36:58;;;;;;;18.90;5.32;;;;;;;;;;5033502;28;20067;-66
2022/05/16 02:39:24;;;;;;;19.40;4.53;;;;;;;;;;5038689;28;20495;-66
2022/05/16 02:41:50;;;;;;;28.67;5.45;;;;;;;;;;5053346;28;20029;-66
2022/05/16 02:44:16;;;;;;;17.75;4.20;;;;;;;;;;5053107;28;20086;-66
2022/05/16 02:46:43;;;;;;;27.63;5.10;;;;;;;;;;5049846;28;20025;-66
2022/05/16 02:49:09;;;;;;;29.48;4.80;;;;;;;;;;5051181;28;20359;-66
2022/05/16 02:51:35;;;;;;;21.73;4.63;;;;;;;;;;5053116;28;20044;-66
2022/05/16 02:54:02;;;;;;;24.10;5.07;;;;;;;;;;5051961;28;22068;-66
2022/05/16 02:56:28;;;;;;;26.33;5.25;;;;;;;;;;5052119;28;20049;-66
2022/05/16 02:58:54;;;;;;;16.20;5.30;;;;;;;;;;5052980;28;20040;-66
2022/05/16 03:01:20;;;;;;;23.15;5.05;;;;;;;;;;5052228;28;20033;-66
2022/05/16 03:03:46;;;;;;;20.15;4.63;;;;;;;;;;5054228;28;20028;-66
2022/05/16 03:06:13;;;;;;;18.77;4.13;;;;;;;;;;5052622;28;20372;-66
2022/05/16 03:08:40;;;;;;;29.80;7.22;;;;;;;;;;5053190;28;20095;-66
2022/05/16 03:11:06;;;;;;;11.43;3.95;;;;;;;;;;5048391;28;20048;-66
2022/05/16 03:13:32;;;;;;;24.23;4.75;;;;;;;;;;5052804;28;20025;-66
2022/05/16 03:15:58;;;;;;;20.90;4.75;;;;;;;;;;5052835;28;20025;-66
2022/05/16 03:18:25;;;;;;;21.92;4.53;;;;;;;;;;5052329;28;20040;-66
2022/05/16 03:20:51;;;;;;;23.85;6.82;;;;;;;;;;5052068;28;20049;-66
2022/05/16 03:23:17;;;;;;;26.20;5.85;;;;;;;;;;5052184;28;20025;-66
2022/05/16 03:25:44;;;;;;;27.88;5.53;;;;;;;;;;5051124;28;20036;-66
2022/05/16 03:28:11;;;;;;;30.40;5.38;;;;;;;;;;5052615;28;20397;-66
2022/05/16 03:30:38;;;;;;;22.15;4.65;;;;;;;;;;5052736;28;20519;-66
2022/05/16 03:33:05;;;;;;;26.02;5.18;;;;;;;;;;5052249;28;20055;-66
2022/05/16 03:35:31;;;;;;;15.88;4.72;;;;;;;;;;5041296;28;20029;-66
2022/05/16 03:37:57;;;;;;;24.13;5.20;;;;;;;;;;5052828;28;20071;-66
2022/05/16 03:40:42;;;;;;;17.70;4.47;;;;;;;;;;5052228;28;20021;-66
2022/05/16 03:43:09;;;;;;;26.25;4.97;;;;;;;;;;5058740;28;20033;-66
2022/05/16 03:45:36;;;;;;;27.75;5.53;;;;;;;;;;5072508;28;20028;-66
2022/05/16 03:48:02;;;;;;;26.67;4.53;;;;;;;;;;5043323;28;20025;-66
2022/05/16 03:50:28;;;;;;;24.58;6.28;;;;;;;;;;5052691;28;20021;-66
2022/05/16 03:52:54;;;;;;;15.82;4.00;;;;;;;;;;5052289;28;20040;-65
2022/05/16 03:55:20;;;;;;;22.40;4.85;;;;;;;;;;5052139;28;20627;-65
2022/05/16 03:57:46;;;;;;;16.88;3.83;;;;;;;;;;5052584;28;20036;-65
2022/05/16 04:00:14;;;;;;;24.30;4.95;;;;;;;;;;5043581;28;20111;-65
2022/05/16 04:02:41;;;;;;;17.55;4.60;;;;;;;;;;5032671;28;20042;-64
2022/05/16 04:05:08;;;;;;;21.35;4.90;;;;;;;;;;5032295;28;20030;-64
2022/05/16 04:07:35;;;;;;;19.67;4.43;;;;;;;;;;5032085;28;20367;-65
2022/05/16 04:10:01;;;;;;;23.98;4.90;;;;;;;;;;5035646;28;20036;-65
2022/05/16 04:12:28;;;;;;;22.35;5.13;;;;;;;;;;5036264;28;20056;-65
2022/05/16 04:14:54;;;;;;;24.75;4.88;;;;;;;;;;5045162;28;20084;-65
2022/05/16 04:17:20;;;;;;;22.17;5.18;;;;;;;;;;5069428;28;20035;-65
2022/05/16 04:19:46;;;;;;;29.27;4.60;;;;;;;;;;5076727;28;20460;-65
2022/05/16 04:22:12;;;;;;;25.70;4.70;;;;;;;;;;5075661;28;20035;-65
2022/05/16 04:24:39;;;;;;;14.63;4.95;;;;;;;;;;5073287;28;20091;-65
2022/05/16 04:27:05;;;;;;;22.92;4.20;;;;;;;;;;5055482;28;20504;-65
2022/05/16 04:29:31;;;;;;;24.70;4.85;;;;;;;;;;5055679;28;20477;-65
2022/05/16 04:31:57;;;;;;;19.77;4.53;;;;;;;;;;5056187;28;20060;-65
2022/05/16 04:34:23;;;;;;;20.88;4.78;;;;;;;;;;5055887;28;20025;-65
2022/05/16 04:36:50;;;;;;;18.38;4.25;;;;;;;;;;5055476;28;20049;-64
2022/05/16 04:39:16;;;;;;;16.25;4.28;;;;;;;;;;5063802;28;20028;-65
2022/05/16 04:44:26;;;;;;;37.47;6.63;;;;;;;;;;5075570;28;20031;-65
2022/05/16 04:46:52;;;;;;;18.05;4.75;;;;;;;;;;5064703;28;20148;-65
2022/05/16 04:49:18;;;;;;;21.75;4.35;;;;;;;;;;5059973;28;20028;-65
2022/05/16 04:51:44;;;;;;;16.35;3.92;;;;;;;;;;5054983;28;20494;-65
2022/05/16 04:54:11;;;;;;;21.27;4.28;;;;;;;;;;5055815;28;20043;-65
2022/05/16 04:56:37;;;;;;;29.85;4.38;;;;;;;;;;5055413;28;20037;-64
2022/05/16 04:59:04;;;;;;;17.23;3.97;;;;;;;;;;5053731;28;20553;-65
2022/05/16 05:01:31;;;;;;;19.48;4.13;;;;;;;;;;5055124;28;20036;-65
2022/05/16 05:03:57;;;;;;;17.70;4.03;;;;;;;;;;5055495;28;20033;-64
2022/05/16 05:06:23;;;;;;;16.33;3.67;;;;;;;;;;5054719;28;20021;-64
2022/05/16 05:08:49;;;;;;;15.50;3.83;;;;;;;;;;5055415;28;20112;-65
2022/05/16 05:16:45;;;;;;;24.20;4.53;;;;;;;;;;5055094;28;20044;-65
2022/05/16 05:19:11;;;;;;;13.57;3.17;;;;;;;;;;5054531;28;20025;-65
2022/05/16 05:21:37;;;;;;;18.02;4.38;;;;;;;;;;5052179;28;20021;-65
2022/05/16 05:24:03;;;;;;;22.45;4.05;;;;;;;;;;5057406;28;20026;-65
2022/05/16 05:26:29;;;;;;;19.40;5.68;;;;;;;;;;5047437;28;20021;-65
2022/05/16 05:28:56;;;;;;;22.33;5.28;;;;;;;;;;5039000;28;20026;-65
2022/05/16 05:31:25;;;;;;;20.25;4.47;;;;;;;;;;5038866;28;20489;-65
2022/05/16 05:33:51;;;;;;;25.10;3.95;;;;;;;;;;5047438;28;20388;-64
2022/05/16 05:36:18;;;;;;;17.15;3.67;;;;;;;;;;5055111;28;20032;-65
2022/05/16 05:38:44;;;;;;;20.15;4.35;;;;;;;;;;5037890;28;20057;-65
2022/05/16 05:41:11;;;;;;;19.42;3.38;;;;;;;;;;5036889;28;20071;-65
2022/05/16 05:43:37;;;;;;;12.32;3.80;;;;;;;;;;5053352;28;20550;-65
2022/05/16 05:46:04;;;;;;;15.93;4.30;;;;;;;;;;5053222;28;20368;-65
2022/05/16 05:48:30;;;;;;;18.23;4.57;;;;;;;;;;5049630;28;20056;-65
2022/05/16 05:50:56;;;;;;;22.70;6.00;;;;;;;;;;5037132;28;20045;-65
2022/05/16 05:53:22;;;;;;;14.98;3.90;;;;;;;;;;5041290;28;20112;-65
2022/05/16 05:55:49;;;;;;;18.23;4.03;;;;;;;;;;5048511;28;20124;-64
2022/05/16 05:58:15;;;;;;;19.20;4.38;;;;;;;;;;5051651;28;20032;-70
2022/05/16 06:00:42;;;;;;;22.08;5.03;;;;;;;;;;5045676;28;20536;-64
2022/05/16 06:03:08;;;;;;;20.83;4.53;;;;;;;;;;5046144;28;20125;-64
2022/05/16 06:05:34;;;;;;;21.15;3.72;;;;;;;;;;5044255;28;20120;-65
2022/05/16 06:08:01;;;;;;;12.85;4.43;;;;;;;;;;5047601;28;20025;-65
2022/05/16 06:10:27;;;;;;;13.30;3.85;;;;;;;;;;5042296;28;20381;-65
2022/05/16 06:12:54;;;;;;;17.80;3.75;;;;;;;;;;5056435;28;20115;-65
2022/05/16 06:15:20;;;;;;;16.05;3.45;;;;;;;;;;5051574;28;20037;-65
2022/05/16 06:17:46;;;;;;;19.35;3.63;;;;;;;;;;5048136;28;20021;-65
2022/05/16 06:20:14;;;;;;;20.80;3.80;;;;;;;;;;5032987;28;20547;-66
2022/05/16 06:22:40;;;;;;;18.15;4.15;;;;;;;;;;5033006;28;20112;-66
2022/05/16 06:27:53;;;;;;;15.60;3.40;;;;;;;;;;5033032;28;20029;-66
2022/05/16 06:30:19;;;;;;;21.02;4.38;;;;;;;;;;5042484;28;20016;-66
2022/05/16 06:32:48;;;;;;;19.42;5.45;;;;;;;;;;5051758;28;20033;-66
2022/05/16 06:35:15;;;;;;;20.75;3.53;;;;;;;;;;5053316;28;20025;-67
2022/05/16 06:37:41;;;;;;;19.23;3.92;;;;;;;;;;5052560;28;20029;-67
2022/05/16 06:40:08;;;;;;;19.55;4.88;;;;;;;;;;5053234;28;20056;-67
2022/05/16 06:42:34;;;;;;;20.80;4.47;;;;;;;;;;5052769;28;20050;-67
2022/05/16 06:45:01;;;;;;;14.35;3.78;;;;;;;;;;5051670;28;20017;-67
2022/05/16 06:47:27;;;;;;;15.75;3.80;;;;;;;;;;5052278;28;20029;-67
2022/05/16 06:49:53;;;;;;;22.75;3.53;;;;;;;;;;5052007;28;20027;-67
2022/05/16 06:52:20;;;;;;;16.17;3.78;;;;;;;;;;5051836;28;20021;-67
2022/05/16 06:54:46;;;;;;;23.35;4.63;;;;;;;;;;5052374;28;20489;-67
2022/05/16 06:57:12;;;;;;;17.80;3.45;;;;;;;;;;5052682;28;20049;-67
2022/05/16 06:59:38;;;;;;;18.30;3.53;;;;;;;;;;5050318;28;20033;-72
2022/05/16 07:02:07;;;;;;;14.60;3.70;;;;;;;;;;5082341;28;20036;-68
2022/05/16 07:04:36;;;;;;;13.30;3.50;;;;;;;;;;5056344;28;20048;-68
2022/05/16 07:07:04;;;;;;;17.23;3.55;;;;;;;;;;5051744;28;20029;-68
2022/05/16 07:09:30;;;;;;;21.50;3.53;;;;;;;;;;5051936;28;20155;-68
2022/05/16 07:11:57;;;;;;;16.92;4.25;;;;;;;;;;5056927;28;20029;-68
2022/05/16 07:14:23;;;;;;;19.88;4.15;;;;;;;;;;5055104;28;20491;-68
2022/05/16 07:16:49;;;;;;;16.48;3.75;;;;;;;;;;5054024;28;20119;-68
2022/05/16 07:19:15;;;;;;;18.25;3.90;;;;;;;;;;5058206;28;20485;-67
2022/05/16 07:21:41;;;;;;;15.80;3.65;;;;;;;;;;5051650;28;20055;-68
2022/05/16 07:24:08;;;;;;;21.55;4.35;;;;;;;;;;5051953;28;20021;-68
2022/05/16 07:29:20;;;;;;;15.30;3.35;;;;;;;;;;5050333;28;20025;-67
2022/05/16 07:31:46;;;;;;;16.08;3.50;;;;;;;;;;5049002;28;20114;-67
2022/05/16 07:34:12;;;;;;;16.23;3.65;;;;;;;;;;5050506;28;20067;-68
2022/05/16 07:36:38;;;;;;;16.10;3.72;;;;;;;;;;5050107;28;20040;-67
2022/05/16 07:39:04;;;;;;;14.75;3.38;;;;;;;;;;5050774;28;20031;-68
2022/05/16 07:41:31;;;;;;;15.52;3.72;;;;;;;;;;5050485;28;20036;-68
2022/05/16 07:43:58;;;;;;;13.52;3.40;;;;;;;;;;5052004;28;20029;-67
2022/05/16 07:46:24;;;;;;;12.95;3.50;;;;;;;;;;5050860;28;20017;-67
2022/05/16 07:48:50;;;;;;;16.92;3.50;;;;;;;;;;5050237;28;20059;-68
2022/05/16 07:51:17;;;;;;;16.45;4.00;;;;;;;;;;5051170;28;20025;-68
2022/05/16 07:53:43;;;;;;;14.00;3.72;;;;;;;;;;5050654;28;20056;-68
2022/05/16 07:56:09;;;;;;;17.70;3.40;;;;;;;;;;5044240;28;20079;-68
2022/05/16 07:58:35;;;;;;;20.05;3.63;;;;;;;;;;5054477;28;20033;-67
2022/05/16 08:01:01;;;;;;;11.70;3.40;;;;;;;;;;5049691;28;20017;-68
2022/05/16 08:03:29;;;;;;;17.23;3.58;;;;;;;;;;5050613;28;20056;-68
2022/05/16 08:05:56;;;;;;;10.20;2.33;;;;;;;;;;5049867;28;20029;-68
2022/05/16 08:11:06;;;;;;;7.47;2.90;;;;;;;;;;5048721;28;20029;-67
2022/05/16 08:13:33;;;;;;;11.63;3.15;;;;;;;;;;5041574;28;20086;-68
2022/05/16 08:15:59;;;;;;;8.43;2.30;;;;;;;;;;5037687;28;20028;-68
2022/05/16 08:18:25;;;;;;;13.73;3.38;;;;;;;;;;5045564;28;20056;-68
2022/05/16 08:20:52;;;;;;;8.23;2.53;;;;;;;;;;5050093;28;20029;-68
2022/05/16 08:23:21;;;;;;;4.40;2.25;;;;;;;;;;5050685;28;20025;-68
2022/05/16 08:25:47;;;;;;;5.15;2.10;;;;;;;;;;5050389;28;20052;-68
2022/05/16 08:28:14;;;;;;;6.20;2.10;;;;;;;;;;5055109;28;20009;-68
2022/05/16 08:30:41;;;;;;;12.88;2.55;;;;;;;;;;5050119;28;20485;-67
2022/05/16 08:33:07;;;;;;;6.85;2.15;;;;;;;;;;5048343;28;20461;-68
2022/05/16 08:35:33;;;;;;;5.00;1.80;;;;;;;;;;5050139;28;20031;-67
2022/05/16 08:41:05;;;;;;;8.75;1.95;;;;;;;;;;5050497;28;20043;-67
2022/05/16 08:43:56;;;;;;;5.20;1.77;;;;;;;;;;5051376;28;20068;-67
2022/05/16 08:46:32;;;;;;;7.57;1.85;;;;;;;;;;5046728;28;20029;-67
2022/05/16 08:49:02;;;;;;;5.55;1.58;;;;;;;;;;5050315;28;20456;-68
2022/05/16 08:51:33;;;;;;;7.38;1.70;;;;;;;;;;5050512;28;20108;-68
2022/05/16 08:54:17;;;;;;;3.83;1.90;;;;;;;;;;5050638;28;20389;-68
2022/05/16 08:56:46;;;;;;;6.57;1.70;;;;;;;;;;5053742;28;20514;-68
2022/05/16 08:59:26;;;;;;;7.35;2.20;;;;;;;;;;5053755;28;20040;-68
2022/05/16 09:01:53;;;;;;;3.80;2.15;;;;;;;;;;5053931;28;20175;-68
2022/05/16 09:04:30;;;;;;;3.85;1.63;;;;;;;;;;5054051;28;20381;-68
2022/05/16 09:07:04;;;;;;;7.50;1.88;;;;;;;;;;5050654;28;20033;-69
2022/05/16 09:10:09;;;;;;;6.13;1.90;;;;;;;;;;5039106;28;20037;-68
2022/05/16 09:12:54;;;;;;;5.78;1.77;;;;;;;;;;5017131;28;20586;-68
2022/05/16 09:15:21;;;;;;;6.47;2.45;;;;;;;;;;5011562;28;20034;-69
2022/05/16 09:17:58;;;;;;;8.05;2.13;;;;;;;;;;5011087;28;20092;-69
2022/05/16 09:20:36;;;;;;;9.35;2.38;;;;;;;;;;5011742;28;20030;-69
2022/05/16 09:23:07;;;;;;;8.52;1.80;;;;;;;;;;5010903;28;20021;-69
2022/05/16 09:25:50;;;;;;;5.60;2.00;;;;;;;;;;5011337;28;20026;-69
2022/05/16 09:28:36;;;;;;;8.27;1.88;;;;;;;;;;5009388;28;20576;-68
2022/05/16 09:31:22;;;;;;;3.65;1.42;;;;;;;;;;5010681;28;20118;-68
2022/05/16 09:33:51;;;;;;;6.05;1.25;;;;;;;;;;5010924;28;20080;-69
2022/05/16 09:36:20;;;;;;;8.70;1.60;;;;;;;;;;5011262;28;20085;-69
2022/05/16 09:38:46;;;;;;;2.15;1.38;;;;;;;;;;5010434;28;20029;-68
2022/05/16 09:41:15;;;;;;;5.65;2.05;;;;;;;;;;5011718;28;20044;-68
2022/05/16 09:43:51;;;;;;;3.33;1.90;;;;;;;;;;5033510;28;20112;-68
2022/05/16 09:46:26;;;;;;;4.50;1.52;;;;;;;;;;5051715;28;20029;-68
2022/05/16 09:49:15;;;;;;;2.92;1.33;;;;;;;;;;5052604;28;20025;-68
2022/05/16 09:51:44;;;;;;;3.55;1.45;;;;;;;;;;5043477;28;20432;-68
2022/05/16 09:54:13;;;;;;;5.18;1.33;;;;;;;;;;5051955;28;20025;-68
2022/05/16 09:56:44;;;;;;;8.45;1.73;;;;;;;;;;5052010;28;20042;-68
2022/05/16 09:59:13;;;;;;;12.03;2.57;;;;;;;;;;5052013;28;20036;-68
2022/05/16 10:01:43;;;;;;;5.78;1.48;;;;;;;;;;5052372;28;20333;-68
2022/05/16 10:04:10;;;;;;;9.00;2.30;;;;;;;;;;5051856;28;20487;-68
2022/05/16 10:06:37;;;;;;;11.85;2.25;;;;;;;;;;5052161;28;20053;-68
2022/05/16 10:09:05;;;;;;;9.18;2.22;;;;;;;;;;5050611;28;20393;-68
2022/05/16 10:11:32;;;;;;;13.20;2.30;;;;;;;;;;5051454;28;20428;-68
2022/05/16 10:13:58;;;;;;;14.02;2.80;;;;;;;;;;5051836;28;20056;-68
2022/05/16 10:16:26;;;;;;;11.13;2.13;;;;;;;;;;5047005;28;20067;-68
2022/05/16 10:19:05;;;;;;;11.93;2.33;;;;;;;;;;5046357;28;20024;-68
2022/05/16 10:21:34;;;;;;;13.13;3.15;;;;;;;;;;5052335;28;20036;-68
2022/05/16 10:24:02;;;;;;;15.25;2.45;;;;;;;;;;5052001;28;20716;-68
2022/05/16 10:26:31;;;;;;;11.55;2.60;;;;;;;;;;5050179;28;20013;-68
2022/05/16 10:29:01;;;;;;;8.52;2.20;;;;;;;;;;5051607;28;20033;-68
2022/05/16 10:34:20;;;;;;;8.57;2.33;;;;;;;;;;5040811;28;20488;-68
2022/05/16 10:36:52;;;;;;;10.52;2.05;;;;;;;;;;5045464;28;20021;-68
2022/05/16 10:39:21;;;;;;;10.90;3.20;;;;;;;;;;5052385;28;20025;-68
2022/05/16 10:42:05;;;;;;;16.55;2.60;;;;;;;;;;5051733;28;20033;-68
2022/05/16 10:44:41;;;;;;;15.55;3.15;;;;;;;;;;5051830;28;20149;-68
2022/05/16 10:47:10;;;;;;;19.75;3.47;;;;;;;;;;5032477;28;20040;-69
2022/05/16 10:49:43;;;;;;;14.15;2.88;;;;;;;;;;5036951;28;20021;-68
2022/05/16 10:52:28;;;;;;;14.60;2.53;;;;;;;;;;5048069;28;20025;-68
2022/05/16 10:54:54;;;;;;;16.38;2.58;;;;;;;;;;5046451;28;20470;-68
2022/05/16 10:57:36;;;;;;;12.77;2.35;;;;;;;;;;5049953;28;20076;-68
2022/05/16 11:00:06;;;;;;;7.60;2.17;;;;;;;;;;5052775;28;20028;-68
2022/05/16 11:02:42;;;;;;;13.65;2.60;;;;;;;;;;5052003;28;20049;-68
2022/05/16 11:05:11;;;;;;;13.38;2.40;;;;;;;;;;5058239;28;20035;-68
2022/05/16 11:07:37;;;;;;;18.10;3.35;;;;;;;;;;5055933;28;20025;-68
2022/05/16 11:10:19;;;;;;;12.10;2.33;;;;;;;;;;5048135;28;20488;-68
2022/05/16 11:12:51;;;;;;;15.57;3.25;;;;;;;;;;5035126;28;20516;-68
2022/05/16 11:15:18;;;;;;;14.32;3.15;;;;;;;;;;5042863;28;20039;-74
2022/05/16 11:17:48;;;;;;;12.90;2.92;;;;;;;;;;5051339;28;20488;-68
2022/05/16 11:20:19;;;;;;;16.02;2.78;;;;;;;;;;5037387;28;20497;-68
2022/05/16 11:22:54;;;;;;;8.90;2.35;;;;;;;;;;5051487;28;20083;-68
2022/05/16 11:25:39;;;;;;;13.65;2.45;;;;;;;;;;5056006;28;20454;-68
2022/05/16 11:28:24;;;;;;;12.85;2.60;;;;;;;;;;5050270;28;20029;-68
2022/05/16 11:31:07;;;;;;;12.82;3.08;;;;;;;;;;5042788;28;20029;-67
2022/05/16 11:33:44;;;;;;;10.65;2.40;;;;;;;;;;5032167;28;20038;-67
2022/05/16 11:36:29;;;;;;;12.18;2.50;;;;;;;;;;5032018;28;20041;-68
2022/05/16 11:38:58;;;;;;;12.05;2.40;;;;;;;;;;5030927;28;20224;-68
2022/05/16 11:41:24;;;;;;;19.17;3.08;;;;;;;;;;5031083;28;20032;-67
2022/05/16 11:43:52;;;;;;;16.88;3.03;;;;;;;;;;5040826;28;20032;-67
2022/05/16 11:46:18;;;;;;;12.20;2.63;;;;;;;;;;5071314;28;20025;-67
2022/05/16 11:48:44;;;;;;;13.80;3.08;;;;;;;;;;5070920;28;20427;-68
2022/05/16 11:51:25;;;;;;;13.70;2.78;;;;;;;;;;5066668;28;20028;-67
2022/05/16 11:53:54;;;;;;;14.45;2.58;;;;;;;;;;5051061;28;20028;-67
2022/05/16 12:02:16;;;;;;;16.23;2.78;;;;;;;;;;5050878;28;20052;-67
2022/05/16 12:04:47;;;;;;;12.35;2.72;;;;;;;;;;5050804;28;20511;-68
2022/05/16 12:07:16;;;;;;;13.60;2.47;;;;;;;;;;5050859;28;20120;-67
2022/05/16 12:10:18;;;;;;;10.95;2.35;;;;;;;;;;5050727;28;20466;-67
2022/05/16 12:12:46;;;;;;;11.68;2.88;;;;;;;;;;5008799;28;20056;-67
2022/05/16 12:15:24;;;;;;;12.63;2.53;;;;;;;;;;5009230;28;20633;-67
2022/05/16 12:18:11;;;;;;;13.35;3.20;;;;;;;;;;5008819;28;20034;-67
2022/05/16 12:20:43;;;;;;;13.45;3.13;;;;;;;;;;5001845;28;20490;-67
2022/05/16 12:23:10;;;;;;;12.32;2.88;;;;;;;;;;5009107;28;20050;-67
2022/05/16 12:25:37;;;;;;;15.38;2.13;;;;;;;;;;5008984;28;20030;-67
2022/05/16 12:28:12;;;;;;;11.75;2.35;;;;;;;;;;5009100;28;20038;-67
2022/05/16 12:30:42;;;;;;;16.38;3.30;;;;;;;;;;5011205;28;20029;-67
2022/05/16 12:33:23;;;;;;;9.90;2.13;;;;;;;;;;5013106;28;20034;-67
2022/05/16 12:35:53;;;;;;;16.88;2.88;;;;;;;;;;5012226;28;20552;-67
2022/05/16 12:38:21;;;;;;;15.57;2.78;;;;;;;;;;5012943;28;20049;-67
2022/05/16 12:41:02;;;;;;;11.60;2.58;;;;;;;;;;5011941;28;20270;-67
2022/05/16 12:43:28;;;;;;;12.23;2.60;;;;;;;;;;5012442;28;20042;-67
2022/05/16 12:45:54;;;;;;;9.52;2.38;;;;;;;;;;5016503;28;20033;-67
2022/05/16 12:48:39;;;;;;;15.50;3.10;;;;;;;;;;5034650;28;20052;-67
2022/05/16 12:51:05;;;;;;;12.68;2.55;;;;;;;;;;5039895;28;20017;-67
2022/05/16 12:53:40;;;;;;;12.27;3.15;;;;;;;;;;5054188;28;20021;-67
2022/05/16 12:56:19;;;;;;;17.98;2.70;;;;;;;;;;5054242;28;20041;-67
2022/05/16 12:58:52;;;;;;;14.65;2.92;;;;;;;;;;5054086;28;20037;-67
2022/05/16 13:01:47;;;;;;;19.58;2.67;;;;;;;;;;5054103;28;20104;-67
2022/05/16 13:04:14;;;;;;;12.48;3.25;;;;;;;;;;5045006;28;20037;-67
2022/05/16 13:06:47;;;;;;;10.48;2.22;;;;;;;;;;5054034;28;20036;-67
2022/05/16 13:09:18;;;;;;;10.23;3.00;;;;;;;;;;5054355;28;20032;-67
2022/05/16 13:11:49;;;;;;;15.90;2.83;;;;;;;;;;5053980;28;20461;-67
2022/05/16 13:14:24;;;;;;;15.40;2.88;;;;;;;;;;5054019;28;20393;-67
2022/05/16 13:16:53;;;;;;;12.57;2.92;;;;;;;;;;5053947;28;20112;-67
2022/05/16 13:19:23;;;;;;;12.65;3.70;;;;;;;;;;5053707;28;20029;-67
2022/05/16 13:21:56;;;;;;;11.27;2.80;;;;;;;;;;5053574;28;20405;-67
2022/05/16 13:24:23;;;;;;;11.82;3.10;;;;;;;;;;5054430;28;20029;-67
2022/05/16 13:29:36;;;;;;;9.63;2.15;;;;;;;;;;5053664;28;20120;-67
2022/05/16 13:32:09;;;;;;;10.30;2.60;;;;;;;;;;5053559;28;20033;-67
2022/05/16 13:34:35;;;;;;;13.88;2.28;;;;;;;;;;5053260;28;20045;-67
2022/05/16 13:37:02;;;;;;;12.70;2.28;;;;;;;;;;5053570;28;20031;-67
2022/05/16 13:39:34;;;;;;;13.88;2.65;;;;;;;;;;5053467;28;20063;-67
2022/05/16 13:42:01;;;;;;;11.37;2.97;;;;;;;;;;5052772;28;20404;-67
2022/05/16 13:44:37;;;;;;;11.30;2.67;;;;;;;;;;5063366;28;20391;-67
2022/05/16 13:47:08;;;;;;;10.52;2.35;;;;;;;;;;5073513;28;20040;-67
2022/05/16 13:49:35;;;;;;;5.43;1.98;;;;;;;;;;5072853;28;20029;-67
2022/05/16 13:52:01;;;;;;;8.95;2.88;;;;;;;;;;5061539;28;20028;-67
2022/05/16 13:54:30;;;;;;;14.02;2.70;;;;;;;;;;5044342;28;20480;-67
2022/05/16 13:56:58;;;;;;;9.15;2.25;;;;;;;;;;5032389;28;20057;-67
2022/05/16 13:59:26;;;;;;;11.27;2.63;;;;;;;;;;5032589;28;20163;-67
2022/05/16 14:01:53;;;;;;;13.00;2.03;;;;;;;;;;5032153;28;20037;-67
2022/05/16 14:04:22;;;;;;;8.40;2.33;;;;;;;;;;5034467;28;20026;-67
2022/05/16 14:06:53;;;;;;;15.95;2.70;;;;;;;;;;5032142;28;20409;-67
2022/05/16 14:09:21;;;;;;;7.90;2.20;;;;;;;;;;5035111;28;20064;-67
2022/05/16 14:11:49;;;;;;;9.85;3.25;;;;;;;;;;5032088;28;20501;-67
2022/05/16 14:14:16;;;;;;;17.05;2.78;;;;;;;;;;5037511;28;20020;-67
2022/05/16 14:16:48;;;;;;;12.00;2.78;;;;;;;;;;5036080;28;20029;-67
2022/05/16 14:19:14;;;;;;;15.25;3.15;;;;;;;;;;5042397;28;20121;-67
2022/05/16 14:21:50;;;;;;;7.97;2.45;;;;;;;;;;5035810;28;20104;-67
2022/05/16 14:24:18;;;;;;;9.68;2.33;;;;;;;;;;5034508;28;20033;-67
2022/05/16 14:26:49;;;;;;;18.15;2.45;;;;;;;;;;5066420;28;20386;-67
2022/05/16 14:29:21;;;;;;;13.70;2.72;;;;;;;;;;5035960;28;20504;-67
2022/05/16 14:31:54;;;;;;;11.00;1.88;;;;;;;;;;5031709;28;20041;-67
2022/05/16 14:34:25;;;;;;;9.50;2.95;;;;;;;;;;5051424;28;20114;-67
2022/05/16 14:36:53;;;;;;;9.50;2.60;;;;;;;;;;5038932;28;20032;-67
2022/05/16 14:39:20;;;;;;;7.88;2.30;;;;;;;;;;5031940;28;20079;-67
2022/05/16 14:41:54;;;;;;;8.63;2.08;;;;;;;;;;5031611;28;20032;-67
2022/05/16 14:44:32;;;;;;;8.50;2.53;;;;;;;;;;5032267;28;20033;-67
2022/05/16 14:47:02;;;;;;;10.70;2.13;;;;;;;;;;5035574;28;20032;-67
2022/05/16 14:49:29;;;;;;;7.57;2.38;;;;;;;;;;5032444;28;20045;-67
2022/05/16 14:51:55;;;;;;;7.53;1.83;;;;;;;;;;5036450;28;20105;-67
2022/05/16 14:54:24;;;;;;;10.40;2.38;;;;;;;;;;5031242;28;20040;-67
2022/05/16 14:56:51;;;;;;;9.65;2.33;;;;;;;;;;5034519;28;20047;-66
2022/05/16 14:59:17;;;;;;;13.18;2.22;;;;;;;;;;5055777;28;20116;-66
2022/05/16 15:04:28;;;;;;;13.77;2.45;;;;;;;;;;5061716;28;20037;-67
2022/05/16 15:06:54;;;;;;;8.43;2.33;;;;;;;;;;5058148;28;20100;-67
2022/05/16 15:09:21;;;;;;;12.30;2.17;;;;;;;;;;5052060;28;20021;-67
2022/05/16 15:11:51;;;;;;;9.45;2.17;;;;;;;;;;5051955;28;20385;-67
2022/05/16 15:14:18;;;;;;;8.35;1.88;;;;;;;;;;5051943;28;20441;-67
2022/05/16 15:16:44;;;;;;;9.10;2.35;;;;;;;;;;5051302;28;20029;-67
2022/05/16 15:19:12;;;;;;;9.18;2.47;;;;;;;;;;5051618;28;20112;-67
2022/05/16 15:21:39;;;;;;;10.68;2.25;;;;;;;;;;5051658;28;20556;-67
2022/05/16 15:24:07;;;;;;;11.82;2.55;;;;;;;;;;5051419;28;20035;-67
2022/05/16 15:26:33;;;;;;;7.25;2.30;;;;;;;;;;5051726;28;20021;-67